createdAt,value
2018-09-06T00:00:02.232Z,998.56
2018-09-06T00:05:01.951Z,998.54
2018-09-06T00:10:01.294Z,998.57
2018-09-06T00:15:01.591Z,998.48
2018-09-06T00:20:02.064Z,998.51
2018-09-06T00:25:01.355Z,998.53
2018-09-06T00:30:01.839Z,998.47
2018-09-06T00:35:02.469Z,998.48
2018-09-06T00:40:01.965Z,998.49
2018-09-06T00:45:02.252Z,998.58
2018-09-06T00:50:01.731Z,998.55
2018-09-06T00:55:02.194Z,998.53
2018-09-06T01:00:01.469Z,998.49
2018-09-06T01:05:01.788Z,998.51
2018-09-06T01:10:02.019Z,998.47
2018-09-06T01:15:01.411Z,998.42
2018-09-06T01:20:01.900Z,998.35
2018-09-06T01:25:01.709Z,998.33
2018-09-06T01:30:01.936Z,998.36
2018-09-06T01:35:02.492Z,998.34
2018-09-06T01:40:01.733Z,998.29
2018-09-06T01:45:01.984Z,998.27
2018-09-06T01:50:02.437Z,998.32
2018-09-06T01:55:01.712Z,998.33
2018-09-06T02:00:01.940Z,998.32
2018-09-06T02:05:02.508Z,998.24
2018-09-06T02:10:01.739Z,998.18
2018-09-06T02:15:02.131Z,998.12
2018-09-06T02:20:01.446Z,998.16
2018-09-06T02:25:01.905Z,998.09
2018-09-06T02:30:01.857Z,998.11
2018-09-06T02:35:02.465Z,998.06
2018-09-06T02:40:02.358Z,997.97
2018-09-06T02:45:01.737Z,997.9
2018-09-06T02:50:02.136Z,998.11
2018-09-06T02:55:01.394Z,998.49
2018-09-06T03:00:01.696Z,998.47
2018-09-06T03:05:01.995Z,998.34
2018-09-06T03:10:01.276Z,998.3
2018-09-06T03:15:01.576Z,998.25
2018-09-06T03:20:02.088Z,998.25
2018-09-06T03:25:01.339Z,998.27
2018-09-06T03:30:01.620Z,998.15
2018-09-06T03:35:02.109Z,998.18
2018-09-06T03:40:01.367Z,998.22
2018-09-06T03:45:01.605Z,998.09
2018-09-06T03:50:02.025Z,998
2018-09-06T03:55:01.323Z,998.01
2018-09-06T04:00:01.589Z,997.96
2018-09-06T04:05:02.128Z,997.97
2018-09-06T04:10:01.372Z,997.95
2018-09-06T04:15:01.657Z,997.98
2018-09-06T04:20:02.177Z,997.94
2018-09-06T04:25:01.542Z,997.88
2018-09-06T04:30:01.784Z,997.93
2018-09-06T04:35:02.328Z,997.91
2018-09-06T04:40:01.888Z,997.82
2018-09-06T04:45:02.119Z,997.8
2018-09-06T04:50:01.368Z,997.75
2018-09-06T04:55:01.677Z,997.82
2018-09-06T05:00:01.892Z,997.91
2018-09-06T05:05:02.401Z,997.9
2018-09-06T05:10:01.648Z,997.78
2018-09-06T05:15:01.903Z,997.61
2018-09-06T05:20:02.456Z,997.55
2018-09-06T05:25:01.778Z,997.55
2018-09-06T05:30:02.011Z,997.58
2018-09-06T05:35:01.508Z,997.63
2018-09-06T05:40:01.809Z,997.46
2018-09-06T05:45:02.133Z,997.52
2018-09-06T05:50:01.420Z,997.67
2018-09-06T05:55:01.699Z,997.82
2018-09-06T06:00:02.215Z,997.85
2018-09-06T06:05:01.583Z,997.76
2018-09-06T06:10:01.822Z,997.74
2018-09-06T06:15:02.105Z,997.79
2018-09-06T06:20:01.739Z,997.81
2018-09-06T06:25:02.047Z,997.83
2018-09-06T06:30:01.271Z,997.8
2018-09-06T06:35:01.734Z,997.72
2018-09-06T06:40:01.990Z,997.66
2018-09-06T06:45:01.241Z,997.6
2018-09-06T06:50:01.572Z,997.59
2018-09-06T06:55:01.907Z,997.47
2018-09-06T07:00:02.225Z,997.5
2018-09-06T07:05:01.527Z,997.57
2018-09-06T07:10:01.855Z,997.58
2018-09-06T07:15:02.180Z,997.64
2018-09-06T07:20:01.428Z,997.66
2018-09-06T07:25:01.740Z,997.68
2018-09-06T07:30:01.985Z,997.67
2018-09-06T07:35:01.269Z,997.72
2018-09-06T07:40:01.520Z,997.73
2018-09-06T07:45:01.757Z,997.71
2018-09-06T07:50:02.411Z,997.7
2018-09-06T07:55:01.704Z,997.73
2018-09-06T08:00:01.945Z,997.7
2018-09-06T08:05:02.468Z,997.72
2018-09-06T08:10:01.797Z,997.78
2018-09-06T08:15:02.059Z,997.79
2018-09-06T08:20:01.307Z,997.81
2018-09-06T08:25:01.559Z,997.81
2018-09-06T08:30:01.866Z,997.79
2018-09-06T08:35:02.329Z,997.77
2018-09-06T08:40:01.660Z,997.79
2018-09-06T08:45:01.892Z,997.82
2018-09-06T08:50:02.366Z,997.83
2018-09-06T08:55:01.637Z,997.82
2018-09-06T09:00:01.882Z,997.84
2018-09-06T09:05:02.300Z,997.77
2018-09-06T09:10:01.596Z,997.82
2018-09-06T09:15:01.856Z,997.85
2018-09-06T09:20:02.304Z,997.78
2018-09-06T09:25:01.706Z,997.7
2018-09-06T09:30:02.007Z,997.76
2018-09-06T09:35:01.278Z,997.73
2018-09-06T09:40:01.557Z,997.68
2018-09-06T09:45:01.814Z,997.61
2018-09-06T09:50:02.324Z,997.63
2018-09-06T09:55:01.619Z,997.62
2018-09-06T10:00:01.868Z,997.65
2018-09-06T10:05:02.447Z,997.62
2018-09-06T10:10:01.704Z,997.6
2018-09-06T10:15:01.954Z,997.64
2018-09-06T10:20:02.448Z,997.66
2018-09-06T10:25:01.712Z,997.63
2018-09-06T10:30:01.976Z,997.58
2018-09-06T10:35:01.284Z,997.59
2018-09-06T10:40:01.805Z,997.57
2018-09-06T10:45:02.131Z,997.58
2018-09-06T10:50:01.390Z,997.56
2018-09-06T10:55:01.626Z,997.48
2018-09-06T11:00:01.896Z,997.39
2018-09-06T11:05:02.474Z,997.29
2018-09-06T11:10:01.728Z,997.26
2018-09-06T11:15:02.179Z,997.29
2018-09-06T11:20:01.545Z,997.27
2018-09-06T11:25:01.934Z,997.28
2018-09-06T11:30:02.165Z,997.23
2018-09-06T11:35:01.444Z,997.2
2018-09-06T11:40:02.016Z,997.13
2018-09-06T11:45:01.326Z,997.16
2018-09-06T11:50:01.704Z,997.11
2018-09-06T11:55:02.034Z,997.04
2018-09-06T12:00:01.285Z,997.05
2018-09-06T12:05:01.745Z,997.05
2018-09-06T12:10:01.983Z,997.07
2018-09-06T12:15:02.200Z,997.07
2018-09-06T12:20:01.471Z,996.99
2018-09-06T12:25:01.735Z,997.06
2018-09-06T12:30:01.981Z,997.08
2018-09-06T12:35:01.263Z,997.03
2018-09-06T12:40:01.490Z,997.06
2018-09-06T12:45:01.779Z,996.98
2018-09-06T12:50:02.262Z,996.96
2018-09-06T12:55:01.557Z,996.83
2018-09-06T13:00:01.799Z,996.78
2018-09-06T13:05:02.347Z,996.71
2018-09-06T13:10:01.630Z,996.77
2018-09-06T13:15:01.862Z,996.76
2018-09-06T13:20:02.411Z,996.66
2018-09-06T13:25:01.584Z,996.65
2018-09-06T13:30:01.843Z,996.72
2018-09-06T13:35:02.312Z,996.66
2018-09-06T13:40:01.629Z,996.68
2018-09-06T13:45:01.883Z,996.71
2018-09-06T13:50:02.306Z,996.79
2018-09-06T13:55:01.607Z,996.86
2018-09-06T14:00:02.263Z,996.85
2018-09-06T14:05:01.925Z,996.71
2018-09-06T14:10:02.232Z,996.69
2018-09-06T14:15:01.457Z,996.61
2018-09-06T14:20:01.893Z,996.64
2018-09-06T14:25:02.246Z,996.52
2018-09-06T14:30:01.518Z,996.29
2018-09-06T14:35:02.029Z,996.19
2018-09-06T14:40:01.295Z,996.21
2018-09-06T14:45:01.559Z,996.14
2018-09-06T14:50:01.967Z,996.17
2018-09-06T14:55:02.270Z,996.11
2018-09-06T15:00:01.511Z,995.99
2018-09-06T15:05:01.957Z,995.95
2018-09-06T15:10:02.200Z,995.9
2018-09-06T15:15:01.494Z,995.88
2018-09-06T15:20:02.321Z,995.82
2018-09-06T15:25:01.696Z,995.85
2018-09-06T15:30:01.930Z,995.69
2018-09-06T15:35:02.461Z,995.66
2018-09-06T15:40:01.817Z,995.63
2018-09-06T15:45:02.081Z,995.58
2018-09-06T15:50:01.369Z,995.62
2018-09-06T15:55:01.705Z,995.66
2018-09-06T16:00:01.973Z,995.7
2018-09-06T16:05:01.273Z,995.77
2018-09-06T16:10:01.544Z,995.72
2018-09-06T16:15:01.810Z,995.7
2018-09-06T16:20:02.333Z,995.75
2018-09-06T16:25:01.778Z,995.85
2018-09-06T16:30:02.041Z,995.83
2018-09-06T16:35:01.376Z,995.84
2018-09-06T16:40:01.624Z,995.89
2018-09-06T16:45:01.862Z,995.83
2018-09-06T16:50:02.302Z,995.84
2018-09-06T16:55:01.553Z,995.76
2018-09-06T17:00:01.833Z,995.73
2018-09-06T17:05:02.289Z,995.69
2018-09-06T17:10:01.587Z,995.65
2018-09-06T17:15:01.870Z,995.77
2018-09-06T17:20:02.373Z,995.86
2018-09-06T17:25:01.787Z,995.9
2018-09-06T17:30:02.101Z,995.89
2018-09-06T17:35:01.358Z,995.96
2018-09-06T17:40:01.646Z,996.03
2018-09-06T17:45:01.880Z,996
2018-09-06T17:50:02.325Z,996.14
2018-09-06T17:55:01.615Z,996.14
2018-09-06T18:00:01.852Z,996.16
2018-09-06T18:05:02.431Z,996.17
2018-09-06T18:10:01.780Z,996.24
2018-09-06T18:15:02.113Z,996.2
2018-09-06T18:20:01.382Z,996.24
2018-09-06T18:25:01.637Z,996.28
2018-09-06T18:30:01.865Z,996.34
2018-09-06T18:35:02.430Z,996.43
2018-09-06T18:40:01.667Z,996.4
2018-09-06T18:45:01.962Z,996.44
2018-09-06T18:50:02.444Z,996.5
2018-09-06T18:55:01.675Z,996.63
2018-09-06T19:00:01.914Z,996.56
2018-09-06T19:05:02.471Z,996.5
2018-09-06T19:10:01.729Z,996.54
2018-09-06T19:15:01.957Z,996.52
2018-09-06T19:20:01.251Z,996.48
2018-09-06T19:25:01.550Z,996.63
2018-09-06T19:30:01.799Z,996.66
2018-09-06T19:35:02.293Z,996.72
2018-09-06T19:40:01.593Z,996.74
2018-09-06T19:45:02.080Z,996.69
2018-09-06T19:50:01.437Z,996.76
2018-09-06T19:55:01.678Z,996.75
2018-09-06T20:00:02.232Z,996.82
2018-09-06T20:05:01.593Z,996.87
2018-09-06T20:10:01.875Z,996.88
2018-09-06T20:15:01.395Z,996.98
2018-09-06T20:20:01.845Z,996.99
2018-09-06T20:25:02.266Z,997.05
2018-09-06T20:30:01.550Z,997.02
2018-09-06T20:35:02.032Z,997.09
2018-09-06T20:40:01.303Z,997.12
2018-09-06T20:45:01.573Z,997.11
2018-09-06T20:50:02.015Z,997.13
2018-09-06T20:55:01.273Z,997.12
2018-09-06T21:00:01.561Z,997.17
2018-09-06T21:05:01.959Z,997.22
2018-09-06T21:10:02.220Z,997.26
2018-09-06T21:15:01.513Z,997.21
2018-09-06T21:20:01.997Z,997.19
2018-09-06T21:25:01.233Z,997.17
2018-09-06T21:30:01.682Z,997.13
2018-09-06T21:35:02.200Z,997.23
2018-09-06T21:40:01.699Z,997.2
2018-09-06T21:45:01.961Z,997.3
2018-09-06T21:50:02.440Z,997.36
2018-09-06T21:55:01.716Z,997.4
2018-09-06T22:00:02.057Z,997.39
2018-09-06T22:05:01.365Z,997.41
2018-09-06T22:10:01.615Z,997.37
2018-09-06T22:15:01.924Z,997.39
2018-09-06T22:20:02.194Z,997.38
2018-09-06T22:25:01.415Z,997.4
2018-09-06T22:30:01.658Z,997.43
2018-09-06T22:35:02.192Z,997.41
2018-09-06T22:40:01.427Z,997.48
2018-09-06T22:45:01.754Z,997.47
2018-09-06T22:50:02.284Z,997.35
2018-09-06T22:55:01.577Z,997.3
2018-09-06T23:00:01.849Z,997.19
2018-09-06T23:05:02.385Z,997.08
2018-09-06T23:10:01.997Z,997.22
2018-09-06T23:15:01.287Z,997.21
2018-09-06T23:20:01.579Z,997.23
2018-09-06T23:25:01.804Z,997.23
2018-09-06T23:30:02.060Z,997.21
2018-09-06T23:35:01.346Z,997.25
2018-09-06T23:40:01.607Z,997.18
2018-09-06T23:45:01.839Z,997.15
2018-09-06T23:50:02.323Z,997.05
2018-09-06T23:55:01.608Z,997.1
